Terminal Aerodrome Forecast
Issued by NWS Grand Forks, ND

Home | Current Version | Previous Version | Graphics & Text | Print | Product List | Glossary On
Versions: 1 2 3 4 5 6 7 8 9 10 11 12 13 14 15 16 17 18 19 20 21 22 23
819
FTUS43 KFGF 280438 AAA
TAFFAR
TAF AMD
KFAR 280438Z 2805/2824 02010KT 1/4SM FG BKN003
     FM280900 02010KT 1SM BR BKN005
     FM281500 05004KT 3SM BR SCT200
     FM281600 06004KT P6SM SCT150=

USA.gov is the U.S. government's official web portal to all federal, state and local government web resources and services.